Time;durP1;ratioP1;P1;durP2;ratioP2;P2;SDS_P1;SDS_P2;PMS_P1;PMS_P2;Temp;Humidity;BMP_temperature;BMP_pressure;BME280_temperature;BME280_humidity;BME280_pressure;Samples;Min_cycle;Max_cycle;Signal;HPM_P1;HPM_P2
2022/06/28 00:01:40;;;;;;;6.03;1.52;;;;;;;;;;5053954;28;20074;-42
2022/06/28 00:04:05;;;;;;;14.25;1.70;;;;;;;;;;5053774;28;20029;-42
2022/06/28 00:06:31;;;;;;;7.75;1.40;;;;;;;;;;5053817;28;20033;-41
2022/06/28 00:08:56;;;;;;;19.55;2.13;;;;;;;;;;5053661;28;20391;-42
2022/06/28 00:11:22;;;;;;;3.33;1.42;;;;;;;;;;5054077;28;20040;-42
2022/06/28 00:13:47;;;;;;;4.10;1.40;;;;;;;;;;5054038;28;20067;-42
2022/06/28 00:16:16;;;;;;;6.80;1.30;;;;;;;;;;5053394;28;20460;-44
2022/06/28 00:18:42;;;;;;;5.70;2.08;;;;;;;;;;5053872;28;20036;-44
2022/06/28 00:21:07;;;;;;;9.15;3.22;;;;;;;;;;5053809;28;20033;-42
2022/06/28 00:23:37;;;;;;;3.17;1.60;;;;;;;;;;5053777;28;20037;-42
2022/06/28 00:26:02;;;;;;;8.10;1.55;;;;;;;;;;5053394;28;20029;-44
2022/06/28 00:28:28;;;;;;;5.28;1.70;;;;;;;;;;5053513;28;20518;-42
2022/06/28 00:30:53;;;;;;;5.13;1.48;;;;;;;;;;5051995;28;20163;-43
2022/06/28 00:33:19;;;;;;;6.22;1.33;;;;;;;;;;5053371;28;20090;-44
2022/06/28 00:35:45;;;;;;;6.05;1.33;;;;;;;;;;5052004;28;20021;-42
2022/06/28 00:38:11;;;;;;;5.80;1.60;;;;;;;;;;5053488;28;20039;-42
2022/06/28 00:40:49;;;;;;;3.35;1.38;;;;;;;;;;5053491;28;20017;-43
2022/06/28 00:43:16;;;;;;;8.90;2.15;;;;;;;;;;5053080;28;20033;-45
2022/06/28 00:45:43;;;;;;;11.27;3.20;;;;;;;;;;5052539;28;20108;-42
2022/06/28 00:48:09;;;;;;;4.90;1.42;;;;;;;;;;5052986;28;20040;-42
2022/06/28 00:50:37;;;;;;;6.90;1.42;;;;;;;;;;5052927;28;20025;-43
2022/06/28 00:53:13;;;;;;;8.63;1.20;;;;;;;;;;5051659;28;20045;-42
2022/06/28 00:55:39;;;;;;;8.95;1.70;;;;;;;;;;5051692;28;20041;-43
2022/06/28 00:58:05;;;;;;;5.13;1.63;;;;;;;;;;5052764;28;20013;-42
2022/06/28 01:00:34;;;;;;;11.32;2.72;;;;;;;;;;5051583;28;20032;-43
2022/06/28 01:03:00;;;;;;;6.28;1.77;;;;;;;;;;5051427;28;20057;-42
2022/06/28 01:05:26;;;;;;;6.72;1.70;;;;;;;;;;5052975;28;20360;-42
2022/06/28 01:07:51;;;;;;;4.78;1.30;;;;;;;;;;5051334;28;20044;-42
2022/06/28 01:10:17;;;;;;;3.75;1.50;;;;;;;;;;5051365;28;20033;-43
2022/06/28 01:12:42;;;;;;;13.30;2.50;;;;;;;;;;5052548;28;20149;-42
2022/06/28 01:15:08;;;;;;;7.13;1.77;;;;;;;;;;5051100;28;20051;-42
2022/06/28 01:17:55;;;;;;;5.95;2.00;;;;;;;;;;5051304;28;20090;-43
2022/06/28 01:20:47;;;;;;;6.38;1.58;;;;;;;;;;5053027;28;20044;-43
2022/06/28 01:23:20;;;;;;;11.35;1.63;;;;;;;;;;5051066;28;20055;-43
2022/06/28 01:25:51;;;;;;;4.07;1.55;;;;;;;;;;5050978;28;20090;-43
2022/06/28 01:28:24;;;;;;;9.43;2.13;;;;;;;;;;5050931;28;20064;-42
2022/06/28 01:30:54;;;;;;;10.68;2.17;;;;;;;;;;5050875;28;20035;-42
2022/06/28 01:33:23;;;;;;;12.45;2.17;;;;;;;;;;5050940;28;20033;-42
2022/06/28 01:35:49;;;;;;;9.48;2.30;;;;;;;;;;5050840;28;20024;-43
2022/06/28 01:38:17;;;;;;;10.85;2.45;;;;;;;;;;5050890;28;20479;-42
2022/06/28 01:40:46;;;;;;;7.45;1.80;;;;;;;;;;5052266;28;20397;-43
2022/06/28 01:43:14;;;;;;;6.70;2.03;;;;;;;;;;5050850;28;20025;-43
2022/06/28 01:45:42;;;;;;;10.18;1.88;;;;;;;;;;5050674;28;20021;-42
2022/06/28 01:48:08;;;;;;;6.18;2.13;;;;;;;;;;5050355;28;20090;-42
2022/06/28 01:50:56;;;;;;;3.22;1.77;;;;;;;;;;5050579;28;20074;-44
2022/06/28 01:53:22;;;;;;;5.45;2.38;;;;;;;;;;5050588;28;20029;-43
2022/06/28 01:56:07;;;;;;;8.00;1.92;;;;;;;;;;5050418;28;20040;-43
2022/06/28 01:58:47;;;;;;;11.52;2.08;;;;;;;;;;5052096;28;20043;-42
2022/06/28 02:01:12;;;;;;;4.82;1.92;;;;;;;;;;5050319;28;20399;-44
2022/06/28 02:03:40;;;;;;;6.80;2.35;;;;;;;;;;5050735;28;20051;-43
2022/06/28 02:06:31;;;;;;;7.22;2.00;;;;;;;;;;5050353;28;20029;-43
2022/06/28 02:09:02;;;;;;;2.30;1.50;;;;;;;;;;5050234;28;20033;-44
2022/06/28 02:11:37;;;;;;;3.88;1.75;;;;;;;;;;5050273;28;20116;-42
2022/06/28 02:14:02;;;;;;;9.00;1.77;;;;;;;;;;5050243;28;20127;-43
2022/06/28 02:16:28;;;;;;;5.70;2.58;;;;;;;;;;5050015;28;20495;-43
2022/06/28 02:18:53;;;;;;;4.97;1.98;;;;;;;;;;5050132;28;20029;-42
2022/06/28 02:21:19;;;;;;;7.20;2.70;;;;;;;;;;5050189;28;20379;-42
2022/06/28 02:23:46;;;;;;;7.40;1.90;;;;;;;;;;5050121;28;20029;-44
2022/06/28 02:26:13;;;;;;;8.23;2.17;;;;;;;;;;5051287;28;20032;-42
2022/06/28 02:28:39;;;;;;;7.45;2.17;;;;;;;;;;5050004;28;20095;-42
2022/06/28 02:31:12;;;;;;;11.18;2.58;;;;;;;;;;5049911;28;20179;-42
2022/06/28 02:33:38;;;;;;;8.15;3.40;;;;;;;;;;5050067;28;20068;-43
2022/06/28 02:41:32;;;;;;;14.13;2.05;;;;;;;;;;5050044;28;20064;-42
2022/06/28 02:43:58;;;;;;;9.52;1.98;;;;;;;;;;5049807;28;20052;-43
2022/06/28 02:46:24;;;;;;;7.97;1.70;;;;;;;;;;5051377;28;20025;-42
2022/06/28 02:48:49;;;;;;;10.57;2.08;;;;;;;;;;5051066;28;20025;-42
2022/06/28 02:51:15;;;;;;;6.53;1.77;;;;;;;;;;5049762;28;20031;-42
2022/06/28 02:53:41;;;;;;;7.82;1.75;;;;;;;;;;5051417;28;20108;-43
2022/06/28 02:56:06;;;;;;;7.22;2.13;;;;;;;;;;5049786;28;20060;-42
2022/06/28 02:58:32;;;;;;;16.17;2.30;;;;;;;;;;5049723;28;20093;-41
2022/06/28 03:00:58;;;;;;;5.90;2.20;;;;;;;;;;5049672;28;20048;-44
2022/06/28 03:03:24;;;;;;;6.20;2.05;;;;;;;;;;5049665;28;20471;-43
2022/06/28 03:05:50;;;;;;;7.43;1.80;;;;;;;;;;5050942;28;20376;-43
2022/06/28 03:08:16;;;;;;;6.40;1.75;;;;;;;;;;5051506;28;20033;-43
2022/06/28 03:10:42;;;;;;;8.75;2.40;;;;;;;;;;5053584;28;20032;-43
2022/06/28 03:13:07;;;;;;;7.90;1.55;;;;;;;;;;5053514;28;20047;-42
2022/06/28 03:15:33;;;;;;;5.90;1.90;;;;;;;;;;5054752;28;20071;-43
2022/06/28 03:18:00;;;;;;;6.50;1.80;;;;;;;;;;5053800;28;20099;-42
2022/06/28 03:20:26;;;;;;;6.97;1.83;;;;;;;;;;5053289;28;20033;-44
2022/06/28 03:22:51;;;;;;;15.90;2.92;;;;;;;;;;5053452;28;20029;-42
2022/06/28 03:25:17;;;;;;;14.68;4.13;;;;;;;;;;5053340;28;20052;-42
2022/06/28 03:27:45;;;;;;;7.35;1.73;;;;;;;;;;5053157;28;20075;-42
2022/06/28 03:30:10;;;;;;;5.18;1.92;;;;;;;;;;5055053;28;20025;-42
2022/06/28 03:32:40;;;;;;;9.02;1.80;;;;;;;;;;5053252;28;20031;-42
2022/06/28 03:35:07;;;;;;;13.35;3.15;;;;;;;;;;5053061;28;20025;-43
2022/06/28 03:37:33;;;;;;;9.32;2.22;;;;;;;;;;5054351;28;20059;-42
2022/06/28 03:40:03;;;;;;;4.05;1.60;;;;;;;;;;5053115;28;20098;-42
2022/06/28 03:42:29;;;;;;;12.10;1.95;;;;;;;;;;5053055;28;20044;-43
2022/06/28 03:44:55;;;;;;;4.53;1.63;;;;;;;;;;5052953;28;20155;-42
2022/06/28 03:47:21;;;;;;;6.68;2.75;;;;;;;;;;5052914;28;20025;-42
2022/06/28 03:49:53;;;;;;;3.25;1.55;;;;;;;;;;5054118;28;20041;-44
2022/06/28 03:52:37;;;;;;;8.50;2.05;;;;;;;;;;5054517;28;20391;-43
2022/06/28 03:55:21;;;;;;;8.57;1.77;;;;;;;;;;5054164;28;20451;-42
2022/06/28 03:57:49;;;;;;;6.38;1.80;;;;;;;;;;5052800;28;20029;-42
2022/06/28 04:00:15;;;;;;;4.97;1.55;;;;;;;;;;5052563;28;20467;-43
2022/06/28 04:02:45;;;;;;;5.80;2.28;;;;;;;;;;5052663;28;20383;-43
2022/06/28 04:05:18;;;;;;;14.18;2.67;;;;;;;;;;5054123;28;20033;-42
2022/06/28 04:07:44;;;;;;;3.75;2.30;;;;;;;;;;5053889;28;20515;-42
2022/06/28 04:10:10;;;;;;;7.63;2.25;;;;;;;;;;5052351;28;20053;-42
2022/06/28 04:12:37;;;;;;;13.70;2.90;;;;;;;;;;5052528;28;20114;-42
2022/06/28 04:15:15;;;;;;;4.45;2.15;;;;;;;;;;5052208;28;20411;-43
2022/06/28 04:17:41;;;;;;;6.85;2.03;;;;;;;;;;5052440;28;20061;-42
2022/06/28 04:20:25;;;;;;;14.10;2.47;;;;;;;;;;5052846;28;20395;-42
2022/06/28 04:23:00;;;;;;;11.38;1.90;;;;;;;;;;5052288;28;20033;-43
2022/06/28 04:25:25;;;;;;;9.25;1.75;;;;;;;;;;5052145;28;20376;-43
2022/06/28 04:27:56;;;;;;;2.83;1.60;;;;;;;;;;5052149;28;20068;-42
2022/06/28 04:30:25;;;;;;;10.20;2.22;;;;;;;;;;5052184;28;20053;-43
2022/06/28 04:32:54;;;;;;;10.40;1.95;;;;;;;;;;5052063;28;20112;-42
2022/06/28 04:35:22;;;;;;;8.18;1.80;;;;;;;;;;5052124;28;20487;-41
2022/06/28 04:37:47;;;;;;;12.30;1.88;;;;;;;;;;5053283;28;20071;-42
2022/06/28 04:40:33;;;;;;;11.02;2.53;;;;;;;;;;5056058;28;20037;-42
2022/06/28 04:43:14;;;;;;;11.38;1.35;;;;;;;;;;5051851;28;20384;-43
2022/06/28 04:45:39;;;;;;;5.43;2.05;;;;;;;;;;5053435;28;20082;-42
2022/06/28 04:48:09;;;;;;;10.50;2.55;;;;;;;;;;5035634;28;20795;-43
2022/06/28 04:50:35;;;;;;;12.15;1.98;;;;;;;;;;5051778;28;20111;-43
2022/06/28 04:53:01;;;;;;;12.73;2.13;;;;;;;;;;5051564;28;20032;-43
2022/06/28 04:55:27;;;;;;;11.00;2.40;;;;;;;;;;5051715;28;20036;-43
2022/06/28 04:58:04;;;;;;;10.02;3.10;;;;;;;;;;5051578;28;20430;-43
2022/06/28 05:00:30;;;;;;;14.02;3.58;;;;;;;;;;5051532;28;20025;-43
2022/06/28 05:03:03;;;;;;;5.10;1.73;;;;;;;;;;5051452;28;20077;-42
2022/06/28 05:05:54;;;;;;;11.93;3.00;;;;;;;;;;5052783;28;20037;-42
2022/06/28 05:08:20;;;;;;;14.38;2.17;;;;;;;;;;5051277;28;20037;-42
2022/06/28 05:11:07;;;;;;;8.50;2.72;;;;;;;;;;5051979;28;20090;-42
2022/06/28 05:13:53;;;;;;;11.73;2.53;;;;;;;;;;5052694;28;20041;-43
2022/06/28 05:16:20;;;;;;;7.63;2.58;;;;;;;;;;5051125;28;20048;-45
2022/06/28 05:18:46;;;;;;;6.57;1.88;;;;;;;;;;5051205;28;20436;-43
2022/06/28 05:21:14;;;;;;;10.98;1.70;;;;;;;;;;5051074;28;20037;-43
2022/06/28 05:23:41;;;;;;;9.50;2.05;;;;;;;;;;5051132;28;20029;-42
2022/06/28 05:26:27;;;;;;;11.15;2.40;;;;;;;;;;5052248;28;20036;-42
2022/06/28 05:29:13;;;;;;;6.78;2.10;;;;;;;;;;5050915;28;20052;-43
2022/06/28 05:31:39;;;;;;;12.95;1.80;;;;;;;;;;5050807;28;20477;-42
2022/06/28 05:34:05;;;;;;;7.03;1.70;;;;;;;;;;5052058;28;20025;-42
2022/06/28 05:36:32;;;;;;;11.70;2.95;;;;;;;;;;5052155;28;20021;-43
2022/06/28 05:38:57;;;;;;;12.02;2.70;;;;;;;;;;5051011;28;20039;-42
2022/06/28 05:41:23;;;;;;;5.95;1.92;;;;;;;;;;5052165;28;20029;-42
2022/06/28 05:43:48;;;;;;;12.13;2.75;;;;;;;;;;5052009;28;20033;-42
2022/06/28 05:46:14;;;;;;;6.50;2.13;;;;;;;;;;5050624;28;20391;-42
2022/06/28 05:48:39;;;;;;;14.25;2.60;;;;;;;;;;5050681;28;20064;-43
2022/06/28 05:51:05;;;;;;;6.38;1.75;;;;;;;;;;5050451;28;20060;-43
2022/06/28 05:53:30;;;;;;;4.97;2.22;;;;;;;;;;5050757;28;20467;-44
2022/06/28 05:55:56;;;;;;;8.27;2.05;;;;;;;;;;5050426;28;20071;-42
2022/06/28 05:58:22;;;;;;;7.85;1.90;;;;;;;;;;5050513;28;20185;-42
2022/06/28 06:00:49;;;;;;;5.97;1.98;;;;;;;;;;5050904;28;20025;-43
2022/06/28 06:03:16;;;;;;;8.02;2.03;;;;;;;;;;5050325;28;20561;-43
2022/06/28 06:05:42;;;;;;;10.02;2.30;;;;;;;;;;5050488;28;20078;-43
2022/06/28 06:08:08;;;;;;;14.35;1.80;;;;;;;;;;5050116;28;20055;-42
2022/06/28 06:10:35;;;;;;;6.70;2.25;;;;;;;;;;5050284;28;20498;-41
2022/06/28 06:13:02;;;;;;;9.27;2.05;;;;;;;;;;5050221;28;20025;-43
2022/06/28 06:15:28;;;;;;;10.43;1.73;;;;;;;;;;5051389;28;20124;-42
2022/06/28 06:17:53;;;;;;;12.30;2.40;;;;;;;;;;5051613;28;20112;-42
2022/06/28 06:20:19;;;;;;;12.90;2.30;;;;;;;;;;5051271;28;20395;-43
2022/06/28 06:22:47;;;;;;;11.18;2.05;;;;;;;;;;5050195;28;20021;-43
2022/06/28 06:25:38;;;;;;;6.38;1.95;;;;;;;;;;5051276;28;20029;-43
2022/06/28 06:28:04;;;;;;;13.07;2.88;;;;;;;;;;5049955;28;20530;-42
2022/06/28 06:30:30;;;;;;;6.25;2.28;;;;;;;;;;5051605;28;20430;-43
2022/06/28 06:33:10;;;;;;;10.45;3.00;;;;;;;;;;5049968;28;20510;-43
2022/06/28 06:36:08;;;;;;;11.20;1.77;;;;;;;;;;5050616;28;20037;-42
2022/06/28 06:38:34;;;;;;;12.50;1.88;;;;;;;;;;5049955;28;20021;-42
2022/06/28 06:41:00;;;;;;;7.75;1.65;;;;;;;;;;5049790;28;20499;-43
2022/06/28 06:43:26;;;;;;;12.02;2.60;;;;;;;;;;5049455;28;20036;-43
2022/06/28 06:46:02;;;;;;;6.90;1.88;;;;;;;;;;5049834;28;20029;-42
2022/06/28 06:48:28;;;;;;;13.00;1.98;;;;;;;;;;5049732;28;20395;-43
2022/06/28 06:50:53;;;;;;;7.57;1.40;;;;;;;;;;5049882;28;20024;-44
2022/06/28 06:53:20;;;;;;;6.68;1.33;;;;;;;;;;5049695;28;20510;-43
2022/06/28 06:55:47;;;;;;;7.30;1.50;;;;;;;;;;5051111;28;20028;-43
2022/06/28 06:58:14;;;;;;;9.82;1.70;;;;;;;;;;5049574;28;20032;-42
2022/06/28 07:00:40;;;;;;;7.30;1.70;;;;;;;;;;5049756;28;20020;-44
2022/06/28 07:03:06;;;;;;;9.40;1.65;;;;;;;;;;5049617;28;20052;-41
2022/06/28 07:05:31;;;;;;;8.07;2.17;;;;;;;;;;5049700;28;20020;-43
2022/06/28 07:07:57;;;;;;;12.30;2.20;;;;;;;;;;5049477;28;20047;-42
2022/06/28 07:10:30;;;;;;;;;;;;;;;;;;5050137;28;20418;-42
2022/06/28 07:12:56;;;;;;;11.40;2.58;;;;;;;;;;5049633;28;19912;-42
2022/06/28 07:15:22;;;;;;;17.95;3.55;;;;;;;;;;5050599;28;20102;-40
2022/06/28 07:17:48;;;;;;;13.20;2.63;;;;;;;;;;5050905;28;20104;-44
2022/06/28 07:20:14;;;;;;;11.73;1.63;;;;;;;;;;5050970;28;20112;-41
2022/06/28 07:22:40;;;;;;;16.48;2.83;;;;;;;;;;5050982;28;20386;-44
2022/06/28 07:25:13;;;;;;;10.35;2.22;;;;;;;;;;5049494;28;20109;-41
2022/06/28 07:27:39;;;;;;;9.18;2.08;;;;;;;;;;5049556;28;20037;-43
2022/06/28 07:30:06;;;;;;;8.38;1.60;;;;;;;;;;5050541;28;20032;-42
2022/06/28 07:32:31;;;;;;;13.35;2.03;;;;;;;;;;5050651;28;20037;-41
2022/06/28 07:34:57;;;;;;;8.77;1.90;;;;;;;;;;5050601;28;20071;-43
2022/06/28 07:37:23;;;;;;;7.40;2.05;;;;;;;;;;5049406;28;20044;-42
2022/06/28 07:39:50;;;;;;;8.77;2.63;;;;;;;;;;5049328;28;20471;-42
2022/06/28 07:42:35;;;;;;;14.77;2.63;;;;;;;;;;5050831;28;20102;-42
2022/06/28 07:45:23;;;;;;;16.25;1.92;;;;;;;;;;5050120;28;20094;-41
2022/06/28 07:48:00;;;;;;;13.60;1.88;;;;;;;;;;5049079;28;20056;-42
2022/06/28 07:53:16;;;;;;;9.57;2.85;;;;;;;;;;5050505;28;20029;-41
2022/06/28 07:56:17;;;;;;;7.53;2.17;;;;;;;;;;5057067;28;20049;-41
2022/06/28 07:58:44;;;;;;;14.38;2.92;;;;;;;;;;5053994;28;20033;-41
2022/06/28 08:01:16;;;;;;;11.57;1.98;;;;;;;;;;5052652;28;20364;-43
2022/06/28 08:03:42;;;;;;;9.18;2.63;;;;;;;;;;5052779;28;20079;-42
2022/06/28 08:06:09;;;;;;;13.93;1.85;;;;;;;;;;5052522;28;20031;-43
2022/06/28 08:08:43;;;;;;;14.15;3.65;;;;;;;;;;5052569;28;20402;-43
2022/06/28 08:11:10;;;;;;;11.18;2.30;;;;;;;;;;5052655;28;20032;-43
2022/06/28 08:13:37;;;;;;;13.57;2.28;;;;;;;;;;5053718;28;20028;-42
2022/06/28 08:16:03;;;;;;;17.10;3.20;;;;;;;;;;5053558;28;20045;-42
2022/06/28 08:18:29;;;;;;;16.25;2.97;;;;;;;;;;5053574;28;20037;-43
2022/06/28 08:20:55;;;;;;;11.75;2.17;;;;;;;;;;5052387;28;20113;-42
2022/06/28 08:23:21;;;;;;;10.23;2.20;;;;;;;;;;5052270;28;20027;-43
2022/06/28 08:25:47;;;;;;;5.30;1.73;;;;;;;;;;5052254;28;20029;-41
2022/06/28 08:28:13;;;;;;;9.57;2.88;;;;;;;;;;5052041;28;20399;-43
2022/06/28 08:30:40;;;;;;;19.95;2.35;;;;;;;;;;5053460;28;20108;-42
2022/06/28 08:33:06;;;;;;;10.65;2.20;;;;;;;;;;5052022;28;20467;-41
2022/06/28 08:35:34;;;;;;;10.35;2.22;;;;;;;;;;5053637;28;20037;-44
2022/06/28 08:38:00;;;;;;;11.35;2.20;;;;;;;;;;5053566;28;20059;-41
2022/06/28 08:40:26;;;;;;;6.30;1.95;;;;;;;;;;5053303;28;20486;-42
2022/06/28 08:42:53;;;;;;;7.95;2.17;;;;;;;;;;5053560;28;20060;-43
2022/06/28 08:45:20;;;;;;;11.93;2.67;;;;;;;;;;5051847;28;20044;-43
2022/06/28 08:47:49;;;;;;;16.88;3.00;;;;;;;;;;5053042;28;20033;-42
2022/06/28 08:50:19;;;;;;;10.27;2.25;;;;;;;;;;5053098;28;20074;-43
2022/06/28 08:52:45;;;;;;;11.73;2.08;;;;;;;;;;5053087;28;20111;-44
2022/06/28 08:55:11;;;;;;;9.98;3.03;;;;;;;;;;5052866;28;20171;-42
2022/06/28 08:57:37;;;;;;;2.65;1.50;;;;;;;;;;5053014;28;20028;-42
2022/06/28 09:00:06;;;;;;;4.95;1.90;;;;;;;;;;5052801;28;20025;-42
2022/06/28 09:02:32;;;;;;;15.23;3.17;;;;;;;;;;5052842;28;20510;-45
2022/06/28 09:04:59;;;;;;;5.55;2.10;;;;;;;;;;5052414;28;20025;-42
2022/06/28 09:07:24;;;;;;;12.75;3.25;;;;;;;;;;5052934;28;20387;-42
2022/06/28 09:09:51;;;;;;;6.55;2.15;;;;;;;;;;5052651;28;20031;-42
2022/06/28 09:12:16;;;;;;;12.07;3.08;;;;;;;;;;5052601;28;20091;-42
2022/06/28 09:14:42;;;;;;;10.25;2.22;;;;;;;;;;5052425;28;20483;-44
2022/06/28 09:17:18;;;;;;;15.63;2.63;;;;;;;;;;5052783;28;20033;-42
2022/06/28 09:19:44;;;;;;;7.55;3.00;;;;;;;;;;5052789;28;20068;-41
2022/06/28 09:22:26;;;;;;;6.05;2.17;;;;;;;;;;5052717;28;20045;-42
2022/06/28 09:24:52;;;;;;;14.48;2.50;;;;;;;;;;5052482;28;20061;-42
2022/06/28 09:27:26;;;;;;;7.05;2.08;;;;;;;;;;5052286;28;20064;-41
2022/06/28 09:29:52;;;;;;;5.95;2.30;;;;;;;;;;5052562;28;20029;-43
2022/06/28 09:32:24;;;;;;;10.20;2.60;;;;;;;;;;5052547;28;20627;-41
2022/06/28 09:34:54;;;;;;;6.07;2.42;;;;;;;;;;5052537;28;20040;-42
2022/06/28 09:37:33;;;;;;;17.23;3.05;;;;;;;;;;5052289;28;20060;-43
2022/06/28 09:40:08;;;;;;;8.35;2.53;;;;;;;;;;5052349;28;20079;-42
2022/06/28 09:42:33;;;;;;;12.57;2.60;;;;;;;;;;5052174;28;20040;-43
2022/06/28 09:44:59;;;;;;;4.85;2.35;;;;;;;;;;5052230;28;20027;-41
2022/06/28 09:47:25;;;;;;;11.82;3.40;;;;;;;;;;5051945;28;20087;-43
2022/06/28 09:49:51;;;;;;;12.75;2.53;;;;;;;;;;5051756;28;20020;-43
2022/06/28 09:52:19;;;;;;;8.88;2.90;;;;;;;;;;5052096;28;20087;-41
2022/06/28 09:54:46;;;;;;;11.15;2.90;;;;;;;;;;5051996;28;20043;-42
2022/06/28 09:57:12;;;;;;;6.25;3.50;;;;;;;;;;5051796;28;20025;-42
2022/06/28 09:59:38;;;;;;;9.27;2.88;;;;;;;;;;5050377;28;20431;-43
2022/06/28 10:02:04;;;;;;;7.70;2.58;;;;;;;;;;5051724;28;20057;-42
2022/06/28 10:04:31;;;;;;;6.93;2.40;;;;;;;;;;5051760;28;20021;-44
2022/06/28 10:06:56;;;;;;;4.70;2.47;;;;;;;;;;5051549;28;20029;-44
2022/06/28 10:09:22;;;;;;;9.13;2.85;;;;;;;;;;5051550;28;20029;-42
2022/06/28 10:17:42;;;;;;;7.93;2.95;;;;;;;;;;5050912;28;20104;-42
2022/06/28 10:20:09;;;;;;;12.82;3.00;;;;;;;;;;5050352;28;20037;-42
2022/06/28 10:22:35;;;;;;;12.73;2.78;;;;;;;;;;5051440;28;20032;-43
2022/06/28 10:25:02;;;;;;;12.30;2.83;;;;;;;;;;5051445;28;20029;-42
2022/06/28 10:27:28;;;;;;;7.53;2.60;;;;;;;;;;5051484;28;20033;-42
2022/06/28 10:30:08;;;;;;;6.35;2.35;;;;;;;;;;5051309;28;20395;-43
2022/06/28 10:32:42;;;;;;;7.78;2.40;;;;;;;;;;5051403;28;20033;-42
2022/06/28 10:35:08;;;;;;;8.27;3.20;;;;;;;;;;5051258;28;20471;-42
2022/06/28 10:37:34;;;;;;;8.95;2.90;;;;;;;;;;5050141;28;20031;-42
2022/06/28 10:40:18;;;;;;;15.77;3.28;;;;;;;;;;5051480;28;20029;-42
2022/06/28 10:42:50;;;;;;;11.38;3.00;;;;;;;;;;5051422;28;20040;-42
2022/06/28 10:45:16;;;;;;;9.00;2.83;;;;;;;;;;5051120;28;20104;-42
2022/06/28 10:48:00;;;;;;;9.77;3.15;;;;;;;;;;5051690;28;20115;-41
2022/06/28 10:50:26;;;;;;;8.32;3.05;;;;;;;;;;5051122;28;20048;-42
2022/06/28 10:53:01;;;;;;;10.65;3.30;;;;;;;;;;5051109;28;20017;-43
2022/06/28 10:55:27;;;;;;;5.25;3.08;;;;;;;;;;5051008;28;20040;-42
2022/06/28 10:58:05;;;;;;;8.90;3.50;;;;;;;;;;5051366;28;20021;-43
2022/06/28 11:00:34;;;;;;;10.90;3.88;;;;;;;;;;5051155;28;20045;-42
2022/06/28 11:03:00;;;;;;;12.45;3.10;;;;;;;;;;5049716;28;20017;-45
2022/06/28 11:05:44;;;;;;;10.75;2.83;;;;;;;;;;5051190;28;20025;-44
2022/06/28 11:08:11;;;;;;;14.32;4.32;;;;;;;;;;5049518;28;20128;-41
2022/06/28 11:10:37;;;;;;;10.73;3.08;;;;;;;;;;5050937;28;20079;-42
2022/06/28 11:13:19;;;;;;;9.40;3.38;;;;;;;;;;5050862;28;20047;-42
2022/06/28 11:15:44;;;;;;;13.35;3.08;;;;;;;;;;5050856;28;20067;-41
2022/06/28 11:18:20;;;;;;;11.95;3.08;;;;;;;;;;5050829;28;20464;-41
2022/06/28 11:20:46;;;;;;;10.25;3.55;;;;;;;;;;5050692;28;20036;-42
2022/06/28 11:23:30;;;;;;;7.72;3.45;;;;;;;;;;5050782;28;20377;-41
2022/06/28 11:28:52;;;;;;;7.30;3.65;;;;;;;;;;5051673;28;20098;-43
2022/06/28 11:31:18;;;;;;;16.83;3.42;;;;;;;;;;5054573;28;20095;-44
2022/06/28 11:33:44;;;;;;;10.90;3.35;;;;;;;;;;5054552;28;20032;-42
2022/06/28 11:36:19;;;;;;;8.38;2.95;;;;;;;;;;5054907;28;20062;-42
2022/06/28 11:38:45;;;;;;;11.10;3.35;;;;;;;;;;5054626;28;20437;-42
2022/06/28 11:41:10;;;;;;;7.07;2.95;;;;;;;;;;5054117;28;20387;-42
2022/06/28 11:43:36;;;;;;;9.13;3.58;;;;;;;;;;5053138;28;20043;-42
2022/06/28 11:46:03;;;;;;;6.68;2.88;;;;;;;;;;5054230;28;20017;-42
2022/06/28 11:48:29;;;;;;;15.05;3.15;;;;;;;;;;5054247;28;20052;-43
2022/06/28 11:50:56;;;;;;;7.25;3.00;;;;;;;;;;5054265;28;20021;-43
2022/06/28 11:53:22;;;;;;;6.07;3.38;;;;;;;;;;5054382;28;20064;-42
2022/06/28 11:55:48;;;;;;;6.78;3.03;;;;;;;;;;5052624;28;20017;-43
2022/06/28 11:58:16;;;;;;;10.55;4.13;;;;;;;;;;5053957;28;20090;-41
2022/06/28 12:03:17;;;;;;;18.92;3.47;;;;;;;;;;5021735;28;20049;-40
2022/06/28 12:05:42;;;;;;;9.00;4.15;;;;;;;;;;5034619;28;20112;-41
2022/06/28 12:08:08;;;;;;;5.15;3.45;;;;;;;;;;5034632;28;20124;-41
2022/06/28 12:10:34;;;;;;;10.77;4.38;;;;;;;;;;5034890;28;20052;-41
2022/06/28 12:13:09;;;;;;;11.55;3.17;;;;;;;;;;5034549;28;20168;-41
2022/06/28 12:15:35;;;;;;;14.10;4.32;;;;;;;;;;5034447;28;20026;-40
2022/06/28 12:18:02;;;;;;;7.47;3.35;;;;;;;;;;5034056;28;20452;-40
2022/06/28 12:20:28;;;;;;;10.82;4.15;;;;;;;;;;5034094;28;20032;-40
2022/06/28 12:22:54;;;;;;;8.98;3.35;;;;;;;;;;5034346;28;20017;-41
2022/06/28 12:25:20;;;;;;;10.38;3.92;;;;;;;;;;5033833;28;20037;-41
2022/06/28 12:27:46;;;;;;;7.43;3.50;;;;;;;;;;5034073;28;20568;-41
2022/06/28 12:30:11;;;;;;;7.47;3.70;;;;;;;;;;5034097;28;20033;-41
2022/06/28 12:32:37;;;;;;;13.48;4.72;;;;;;;;;;5033997;28;20378;-41
2022/06/28 12:35:06;;;;;;;9.10;3.70;;;;;;;;;;5033784;28;20502;-41
2022/06/28 12:37:33;;;;;;;13.63;3.75;;;;;;;;;;5033508;28;20033;-41
2022/06/28 12:39:58;;;;;;;11.85;3.72;;;;;;;;;;5032877;28;20474;-41
2022/06/28 12:42:26;;;;;;;8.00;3.42;;;;;;;;;;5033690;28;20116;-41
2022/06/28 12:44:53;;;;;;;11.18;4.30;;;;;;;;;;5048761;28;20399;-41
2022/06/28 12:47:19;;;;;;;7.07;3.72;;;;;;;;;;5033576;28;20032;-41
2022/06/28 12:49:44;;;;;;;10.13;3.90;;;;;;;;;;5033398;28;20378;-41
2022/06/28 12:52:10;;;;;;;18.23;5.55;;;;;;;;;;5033377;28;20027;-41
2022/06/28 12:54:35;;;;;;;6.25;3.88;;;;;;;;;;5033298;28;20025;-41
2022/06/28 12:57:01;;;;;;;11.55;3.17;;;;;;;;;;5033620;28;20018;-41
2022/06/28 12:59:26;;;;;;;8.10;3.85;;;;;;;;;;5033122;28;20108;-41
2022/06/28 13:01:52;;;;;;;5.57;3.55;;;;;;;;;;5022684;28;20021;-41
2022/06/28 13:04:18;;;;;;;7.13;3.63;;;;;;;;;;5013145;28;20048;-41
2022/06/28 13:06:44;;;;;;;12.52;4.22;;;;;;;;;;5013271;28;20477;-41
2022/06/28 13:09:10;;;;;;;11.13;4.05;;;;;;;;;;5013238;28;20022;-41
2022/06/28 13:11:36;;;;;;;6.88;3.22;;;;;;;;;;5013519;28;20028;-41
2022/06/28 13:14:02;;;;;;;8.13;3.53;;;;;;;;;;5013127;28;20043;-41
2022/06/28 13:16:28;;;;;;;7.53;3.85;;;;;;;;;;5013414;28;20053;-41
2022/06/28 13:18:53;;;;;;;14.55;5.05;;;;;;;;;;5013478;28;20044;-41
2022/06/28 13:21:19;;;;;;;9.68;3.88;;;;;;;;;;5012915;28;20367;-41
2022/06/28 13:23:45;;;;;;;7.93;4.32;;;;;;;;;;5028223;28;20064;-41
2022/06/28 13:26:10;;;;;;;10.00;4.38;;;;;;;;;;5013307;28;20387;-41
2022/06/28 13:28:36;;;;;;;6.60;4.85;;;;;;;;;;5011860;28;20044;-41
2022/06/28 13:31:01;;;;;;;6.28;4.00;;;;;;;;;;5012898;28;20137;-41
2022/06/28 13:33:27;;;;;;;8.20;4.03;;;;;;;;;;5012903;28;20044;-41
2022/06/28 13:35:53;;;;;;;9.60;4.70;;;;;;;;;;5012738;28;20052;-41
2022/06/28 13:38:18;;;;;;;12.40;4.93;;;;;;;;;;5012635;28;20117;-41
2022/06/28 13:40:47;;;;;;;14.45;4.68;;;;;;;;;;5012625;28;20017;-41
2022/06/28 13:43:55;;;;;;;15.52;2.97;;;;;;;;;;5012649;28;20065;-41
2022/06/28 13:46:01;;;;;;;6.28;2.70;;;;;;;;;;5009624;28;20088;-41
2022/06/28 13:48:30;;;;;;;15.90;3.28;;;;;;;;;;5012722;28;20037;-41
2022/06/28 13:50:55;;;;;;;4.07;2.13;;;;;;;;;;5012614;28;20566;-41
2022/06/28 13:53:21;;;;;;;12.07;2.97;;;;;;;;;;5012558;28;20159;-41
2022/06/28 13:55:47;;;;;;;9.60;3.10;;;;;;;;;;5012412;28;20026;-41
2022/06/28 13:58:14;;;;;;;6.55;2.13;;;;;;;;;;5012493;28;20053;-41
2022/06/28 14:00:40;;;;;;;5.97;2.03;;;;;;;;;;5012403;28;20538;-41
2022/06/28 14:03:06;;;;;;;6.50;1.95;;;;;;;;;;5012073;28;20129;-40
2022/06/28 14:05:31;;;;;;;9.43;2.15;;;;;;;;;;5012314;28;20117;-41
2022/06/28 14:07:57;;;;;;;13.90;2.15;;;;;;;;;;5012178;28;20041;-41
2022/06/28 14:10:23;;;;;;;13.32;2.35;;;;;;;;;;5012403;28;20045;-41
2022/06/28 14:12:49;;;;;;;13.95;2.22;;;;;;;;;;5012199;28;20467;-41
2022/06/28 14:15:14;;;;;;;5.95;2.33;;;;;;;;;;5012133;28;20040;-41
2022/06/28 14:17:40;;;;;;;9.15;2.40;;;;;;;;;;5012032;28;20026;-41
2022/06/28 14:20:06;;;;;;;8.77;2.63;;;;;;;;;;5012136;28;20030;-40
2022/06/28 14:22:32;;;;;;;8.23;1.73;;;;;;;;;;5011976;28;20065;-41
2022/06/28 14:24:57;;;;;;;8.98;2.38;;;;;;;;;;5011954;28;20030;-40
2022/06/28 14:27:23;;;;;;;9.88;2.42;;;;;;;;;;5012112;28;20049;-40
2022/06/28 14:29:48;;;;;;;14.48;2.53;;;;;;;;;;5011989;28;20033;-41
2022/06/28 14:32:14;;;;;;;12.75;2.40;;;;;;;;;;5011837;28;20026;-40
2022/06/28 14:34:40;;;;;;;10.38;2.38;;;;;;;;;;5011832;28;20045;-41
2022/06/28 14:37:05;;;;;;;4.25;1.95;;;;;;;;;;5011929;28;20022;-41
2022/06/28 14:39:31;;;;;;;16.48;3.38;;;;;;;;;;5026850;28;20057;-41
2022/06/28 14:41:57;;;;;;;13.15;1.95;;;;;;;;;;5012184;28;20525;-41
2022/06/28 14:44:23;;;;;;;11.15;2.67;;;;;;;;;;5011726;28;20036;-41
2022/06/28 14:46:48;;;;;;;11.88;2.95;;;;;;;;;;5011907;28;20540;-41
2022/06/28 14:49:15;;;;;;;11.00;2.20;;;;;;;;;;5011736;28;20557;-41
2022/06/28 14:51:42;;;;;;;11.77;2.85;;;;;;;;;;5011945;28;20116;-41
2022/06/28 14:54:08;;;;;;;10.18;2.38;;;;;;;;;;5011638;28;20041;-43
2022/06/28 14:56:33;;;;;;;15.63;2.47;;;;;;;;;;5011717;28;20478;-41
2022/06/28 14:58:59;;;;;;;14.32;2.60;;;;;;;;;;5011933;28;20101;-41
2022/06/28 15:01:25;;;;;;;8.02;2.55;;;;;;;;;;5011828;28;20109;-40
2022/06/28 15:03:51;;;;;;;9.40;3.45;;;;;;;;;;5012849;28;20070;-40
2022/06/28 15:06:17;;;;;;;12.38;2.15;;;;;;;;;;5015546;28;20537;-41